Hauptseite
METAR-TAF:

METAR-TAF

Flughäfen :

Flughafen Karlsruhe/Baden-Baden

Baden-Baden, Deutschland

Breite: 48-46-43N, Länge: 008-04-47E, Höhe: 124 m

Beobachtung

Neuester Wetterbericht von vor 17 Minuten, um 07:50 UTC
Wind 6 kt aus Süd
Temperatur 7°C
Luftfeuchtigkeit 93%
Luftdruck 1030 hPa
Sichtweite 10 km oder mehr
keine Wolken unter 1500 m und keine Kumulonimbus oder Gewitterwolken

METAR: EDSB 230750Z 19006KT CAVOK 07/06 Q1030

Zeit: 10:07 (08:07 UTC)

Prognose

Neuester Wetterbericht von vor 3 Stunden und 7 Minuten, um 05:00 UTC
Gültige Prognose vom 23 um 06 UTC bis 24 um 06 UTC
Wind 3 kt aus unterschiedlichen Richtungen
Sichtweite 10 km oder mehr
Aufgelockert bewölkt in der Höhe von 4000 ft
Übergehend zu
vom 23 um 08 UTC bis 23 um 11 UTC
Wind 8 kt aus Südwest

TAF: EDSB 230500Z 2306/2406 VRB03KT 9999 SCT040 BECMG 2308/2311 22008KT

Wetterbeobachtungen und Prognosen von mehr als 4000 Flughäfen (METAR und TAF Bericht).

Die verfügbaren Stationen werden durch gelbe und rote Markierungen auf der Karte dargestellt.

Führen Sie die Maus auf sie, um den Namen der Station zu sehen.

Darauf klicken, um die Beobachtung von Wetterbeobachtungen und Prognosen zu sehen.

Um die Karte zu ändern : klicken Sie auf den grünen Tasten mit einem schwarzen Kreuz Zum Vergrößern, auf den grünen Button mit einem Gedankenstrich zu verkleinern, oder auf die grünen Pfeile für benachbarte Karten.


METAR-TAF: